Latest Weather Observations for Samuel Hill

IDQ60801

Issued at 3:32 pm EST Sunday 22 January 2017 (issued every 30 minutes, with the page automatically refreshed every 10 minutes)

About weather observations | Map of weather stations | Latest weather observations for QLD | Other Formats
Station Details ID: 033308 Name: SAMUEL HILL AERO Lat: -22.74 Lon: 150.66 Height: 31.0 m
Data from the previous 72 hours. | See also: Recent months at Samuel Hill
Date/Time
EST
Temp
°C
App
Temp
°C
Dew
Point
°C
Rel
Hum
%
Delta-T
°C
Wind Press
QNH
hPa
Press
MSL
hPa
Rain since
9am
mm
Dir  Spd
km/h
Gust
km/h
Spd
kts
Gust
kts
22/03:00pm 26.4 29.8 24.1 87 1.6 ESE 13 22 7 12 1011.8 1011.6 1.8
22/02:30pm 26.6 29.3 23.5 83 2.1 ESE 15 24 8 13 1012.0 1011.8 1.6
22/02:00pm 26.2 29.1 23.9 87 1.6 ESE 15 24 8 13 1012.1 1011.9 1.6
22/01:30pm 26.1 29.1 24.0 88 1.4 ESE 15 24 8 13 1012.2 1012.0 1.6
22/01:00pm 26.0 28.6 24.0 89 1.4 ESE 17 24 9 13 1012.4 1012.2 1.6
22/12:30pm 26.3 29.1 24.3 89 1.4 SE 17 22 9 12 1012.5 1012.3 1.0
22/12:02pm 26.3 30.0 24.5 90 1.2 SE 13 20 7 11 1012.8 1012.6 0.6
22/12:00pm 26.1 29.3 24.3 90 1.2 SE 15 24 8 13 1012.8 1012.6 0.6
22/11:52am 26.0 28.6 23.9 88 1.4 SE 17 28 9 15 1012.9 1012.7 0.2
22/11:50am 26.1 28.7 24.0 88 1.4 SE 17 30 9 16 1012.9 1012.7 0.2
22/11:30am 27.4 29.7 23.4 79 2.7 SE 17 30 9 16 1013.0 1012.8 0.0
22/11:28am 27.6 30.0 23.6 79 2.7 SE 17 24 9 13 1012.9 1012.7 0.0
22/11:20am 27.9 30.0 23.7 78 2.9 SE 19 28 10 15 1013.0 1012.8 0.0
22/11:10am 27.6 29.9 23.4 78 2.9 ESE 17 28 9 15 1013.0 1012.8 0.0
22/11:00am 27.7 29.8 23.7 79 2.8 ESE 19 32 10 17 1013.1 1012.9 0.0
22/10:30am 29.4 32.1 22.9 68 4.4 ESE 13 24 7 13 1013.1 1012.9 0.0
22/10:00am 29.7 32.8 22.9 67 4.7 ESE 11 19 6 10 1013.0 1012.8 0.0
22/09:30am 29.8 33.0 23.0 67 4.7 ESE 11 17 6 9 1013.1 1012.9 0.0
22/09:00am 29.0 32.2 23.0 70 4.1 E 11 15 6 8 1013.0 1012.8 0.0
22/08:30am 28.6 31.5 23.1 72 3.8 E 13 19 7 10 1012.6 1012.4 0.0
22/08:00am 29.1 31.8 22.8 69 4.3 ENE 13 20 7 11 1012.4 1012.2 0.0
22/07:56am 29.4 32.9 23.6 71 4.0 E 11 17 6 9 1012.3 1012.1 0.0
22/07:38am 28.8 32.5 24.6 78 2.9 E 13 20 7 11 1012.2 1012.0 0.0
22/07:30am 28.1 32.3 24.1 79 2.8 ESE 9 15 5 8 1012.1 1011.9 0.0
22/07:00am 27.4 32.5 24.7 85 1.9 SE 6 7 3 4 1011.8 1011.6 0.0
22/06:30am 25.4 29.7 23.6 90 1.2 SSE 7 9 4 5 1011.5 1011.3 0.0
22/06:00am 24.6 28.8 23.2 92 1.0 S 6 9 3 5 1011.1 1010.9 0.0
22/05:30am 24.5 28.7 23.1 92 0.9 SE 6 9 3 5 1010.5 1010.3 0.0
22/05:00am 24.5 28.5 23.1 92 0.9 SE 7 9 4 5 1010.0 1009.8 0.0
22/04:30am 24.2 27.4 23.0 93 0.8 SSE 11 15 6 8 1009.5 1009.3 0.0
22/04:00am 24.2 28.2 22.8 92 0.9 ESE 6 9 3 5 1008.8 1008.6 0.0
22/03:30am 24.4 29.6 22.8 91 1.1 CALM 0 0 0 0 1008.7 1008.5 0.0
22/03:00am 24.4 28.5 23.0 92 0.9 NNE 6 7 3 4 1008.5 1008.3 0.0
22/02:30am 24.1 27.4 22.5 91 1.1 NNE 9 11 5 6 1008.4 1008.2 0.0
22/02:00am 24.5 29.7 22.8 90 1.1 CALM 0 7 0 4 1008.8 1008.6 0.0
22/01:30am 24.9 30.2 23.0 89 1.3 CALM 0 0 0 0 1008.8 1008.6 0.0
22/01:00am 25.2 30.5 23.1 88 1.4 CALM 0 0 0 0 1009.0 1008.8 0.0
22/12:30am 25.6 29.9 23.3 87 1.6 N 6 7 3 4 1009.1 1008.9 0.0
22/12:00am 26.0 30.2 23.5 86 1.7 NNW 7 13 4 7 1009.1 1008.9 0.0
 
Date/Time
EST
Temp
°C
App
Temp
°C
Dew
Point
°C
Rel
Hum
%
Delta-T
°C
Wind Press
QNH
hPa
Press
MSL
hPa
Rain since
9am
mm
Dir  Spd
km/h
Gust
km/h
Spd
kts
Gust
kts
21/11:30pm 26.1 30.2 23.2 84 2.0 NNW 7 13 4 7 1009.4 1009.2 0.0
21/11:00pm 25.9 29.5 23.0 84 2.0 NNW 9 13 5 7 1009.5 1009.3 0.0
21/10:30pm 25.7 29.3 23.0 85 1.8 N 9 13 5 7 1009.6 1009.4 0.0
21/10:00pm 25.3 28.6 22.6 85 1.8 N 9 11 5 6 1009.7 1009.5 0.0
21/09:30pm 25.7 29.4 22.6 83 2.1 NNE 7 9 4 5 1009.3 1009.1 0.0
21/09:00pm 26.2 29.6 22.7 81 2.4 N 9 11 5 6 1008.9 1008.7 0.0
21/08:30pm 26.9 30.8 22.9 79 2.7 N 7 13 4 7 1008.7 1008.5 0.0
21/08:00pm 27.1 30.5 22.7 77 3.0 NNW 9 15 5 8 1008.2 1008.0 0.0
21/07:30pm 27.1 30.6 22.1 74 3.4 NNW 7 9 4 5 1007.8 1007.6 0.0
21/07:00pm 27.9 30.2 21.4 67 4.3 NNW 11 17 6 9 1007.4 1007.2 0.0
21/06:30pm 28.8 29.7 20.8 62 5.3 NNW 17 20 9 11 1007.0 1006.8 0.0
21/06:00pm 29.9 30.7 19.9 55 6.6 NNW 15 26 8 14 1006.6 1006.4 0.0
21/05:30pm 31.1 31.9 19.8 51 7.4 NNW 15 22 8 12 1006.3 1006.1 0.0
21/05:00pm 31.4 31.6 19.4 49 7.9 NNW 17 24 9 13 1006.1 1005.9 0.0
21/04:30pm 32.3 32.4 19.9 48 8.2 NNW 19 24 10 13 1006.0 1005.8 0.0
21/04:00pm 32.7 32.6 19.6 46 8.7 NNW 19 24 10 13 1006.0 1005.8 0.0
21/03:30pm 32.9 32.9 19.7 45 8.7 N 19 28 10 15 1006.2 1006.0 0.0
21/03:00pm 33.2 33.9 20.4 47 8.6 N 17 24 9 13 1006.5 1006.3 0.0
21/02:30pm 33.4 34.3 21.5 49 8.1 NNW 19 26 10 14 1006.5 1006.3 0.0
21/02:00pm 33.7 35.3 22.8 53 7.5 N 19 28 10 15 1006.9 1006.7 0.0
21/01:30pm 32.9 34.1 21.4 50 7.8 N 17 24 9 13 1007.2 1007.0 0.0
21/01:00pm 33.2 35.1 22.0 51 7.7 N 15 24 8 13 1007.4 1007.2 0.0
21/12:30pm 32.7 34.8 23.1 57 6.6 N 17 24 9 13 1007.7 1007.5 0.0
21/12:00pm 32.2 34.2 22.3 56 6.8 N 15 22 8 12 1008.1 1007.9 0.0
21/11:30am 32.1 34.0 22.8 58 6.4 N 17 24 9 13 1008.4 1008.2 0.0
21/11:00am 31.7 33.8 22.4 58 6.4 NW 15 22 8 12 1008.7 1008.5 0.0
21/10:30am 31.1 32.8 21.6 57 6.4 NNW 15 24 8 13 1009.4 1009.2 0.0
21/10:00am 30.1 30.9 20.6 56 6.3 NNW 17 24 9 13 1009.5 1009.3 0.0
21/09:30am 30.5 32.8 22.7 63 5.3 NW 15 20 8 11 1009.3 1009.1 0.0
21/09:00am 29.6 30.7 21.3 61 5.6 NW 17 22 9 12 1009.1 1008.9 0.0
21/08:30am 28.5 29.9 21.8 67 4.5 NW 17 22 9 12 1009.3 1009.1 0.0
21/08:00am 27.9 29.9 22.2 71 3.9 WNW 15 24 8 13 1009.5 1009.3 0.0
21/07:30am 26.3 29.4 22.2 78 2.8 N 9 15 5 8 1009.2 1009.0 0.0
21/07:00am 24.2 27.5 21.5 85 1.8 NE 6 7 3 4 1009.2 1009.0 0.0
21/06:30am 21.6 25.3 19.9 90 1.1 CALM 0 7 0 4 1009.1 1008.9 0.0
21/06:00am 20.2 23.5 19.0 93 0.8 CALM 0 0 0 0 1009.0 1008.8 0.0
21/05:30am 19.1 21.9 17.9 93 0.7 CALM 0 0 0 0 1008.4 1008.2 0.0
21/05:00am 18.9 21.5 17.6 92 0.8 CALM 0 0 0 0 1007.8 1007.6 0.0
21/04:30am 19.2 22.0 17.9 92 0.8 CALM 0 0 0 0 1007.7 1007.5 0.0
21/04:00am 19.3 22.0 17.8 91 0.9 CALM 0 0 0 0 1007.3 1007.1 0.0
21/03:30am 19.9 22.9 18.4 91 0.9 CALM 0 0 0 0 1007.3 1007.1 0.0
21/03:00am 20.0 23.0 18.5 91 0.9 CALM 0 0 0 0 1007.2 1007.0 0.0
21/02:30am 20.1 22.0 18.6 91 0.9 NNW 6 7 3 4 1007.2 1007.0 0.0
21/02:00am 20.7 24.0 19.2 91 0.9 CALM 0 0 0 0 1007.7 1007.5 0.0
21/01:30am 20.9 24.3 19.4 91 1.0 CALM 0 0 0 0 1007.9 1007.7 0.0
21/01:00am 21.1 24.6 19.6 91 1.0 CALM 0 0 0 0 1008.2 1008.0 0.0
21/12:30am 21.4 25.0 19.7 90 1.1 CALM 0 0 0 0 1008.4 1008.2 0.0
21/12:00am 21.6 24.1 19.9 90 1.1 NW 6 6 3 3 1008.6 1008.4 0.0
 
Date/Time
EST
Temp
°C
App
Temp
°C
Dew
Point
°C
Rel
Hum
%
Delta-T
°C
Wind Press
QNH
hPa
Press
MSL
hPa
Rain since
9am
mm
Dir  Spd
km/h
Gust
km/h
Spd
kts
Gust
kts
20/11:30pm 21.4 23.6 19.5 89 1.2 N 7 9 4 5 1008.9 1008.7 0.0
20/11:00pm 21.4 23.6 19.3 88 1.3 NW 6 7 3 4 1009.0 1008.8 0.0
20/10:30pm 22.2 26.0 20.1 88 1.4 CALM 0 2 0 1 1008.9 1008.7 0.0
20/10:00pm 22.6 26.4 20.1 86 1.6 CALM 0 0 0 0 1009.1 1008.9 0.0
20/09:30pm 23.3 26.6 19.9 81 2.2 NNW 2 7 1 4 1009.1 1008.9 0.0
20/09:00pm 23.7 25.6 19.8 79 2.5 N 9 11 5 6 1009.0 1008.8 0.0
20/08:30pm 23.7 26.0 19.8 79 2.5 N 7 9 4 5 1008.9 1008.7 0.0
20/08:00pm 23.8 25.8 19.9 79 2.5 N 9 11 5 6 1008.6 1008.4 0.0
20/07:30pm 24.8 27.1 19.4 72 3.5 N 6 9 3 5 1008.0 1007.8 0.0
20/07:00pm 25.9 27.6 19.3 67 4.3 NNE 9 13 5 7 1007.2 1007.0 0.0
20/06:30pm 27.1 28.6 19.7 64 4.8 NNE 11 17 6 9 1007.1 1006.9 0.0
20/06:00pm 28.1 29.3 19.9 61 5.4 NNE 13 22 7 12 1007.1 1006.9 0.0
20/05:30pm 28.8 29.1 19.7 58 5.9 NNE 17 28 9 15 1006.5 1006.3 0.0
20/05:00pm 29.8 30.3 20.1 56 6.4 NNE 17 26 9 14 1006.1 1005.9 0.0
20/04:30pm 30.2 30.4 20.2 55 6.6 NE 19 28 10 15 1006.2 1006.0 0.0
20/04:00pm 30.8 31.2 20.7 55 6.7 NNE 19 24 10 13 1006.2 1006.0 0.0
20/03:30pm 31.0 31.4 20.6 54 6.9 NNE 19 30 10 16 1006.7 1006.5 0.0
20/03:00pm 31.8 32.2 20.7 51 7.4 NNE 19 24 10 13 1007.0 1006.8 0.0
20/02:30pm 32.6 33.0 19.8 46 8.5 NNE 17 24 9 13 1007.2 1007.0 0.0
20/02:00pm 32.1 32.1 19.7 48 8.2 NE 19 28 10 15 1007.5 1007.3 0.0
20/01:30pm 32.8 33.3 20.0 47 8.5 NNE 17 26 9 14 1007.7 1007.5 0.0
20/01:00pm 32.8 33.6 17.4 39 9.9 NE 9 20 5 11 1008.2 1008.0 0.0
20/12:30pm 32.5 33.9 18.7 44 9.0 WNW 9 15 5 8 1008.7 1008.5 0.0
20/12:00pm 31.8 32.3 18.4 45 8.7 NW 13 19 7 10 1009.0 1008.8 0.0
20/11:30am 31.3 32.5 19.0 48 8.0 NW 11 19 6 10 1009.4 1009.2 0.0
20/11:00am 31.4 33.1 19.4 49 7.9 WNW 9 17 5 9 1009.8 1009.6 0.0
20/10:30am 30.6 32.2 19.9 52 7.0 WNW 11 17 6 9 1010.1 1009.9 0.0
20/10:00am 30.4 31.7 18.5 49 7.7 NW 9 15 5 8 1010.3 1010.1 0.0
20/09:30am 29.6 30.9 18.4 51 7.2 NNW 9 15 5 8 1010.4 1010.2 0.0
20/09:00am 29.1 31.9 19.7 57 6.2 NNE 4 11 2 6 1010.5 1010.3 0.0
20/08:30am 28.8 31.8 21.3 64 5.0 N 7 11 4 6 1010.5 1010.3 0.0
20/08:00am 27.1 29.5 20.9 69 4.1 NNW 9 13 5 7 1010.5 1010.3 0.0
20/07:30am 27.3 31.8 22.9 77 3.0 SSW 4 7 2 4 1010.2 1010.0 0.0
20/07:00am 26.1 31.3 22.8 82 2.2 CALM 0 0 0 0 1010.1 1009.9 0.0
20/06:30am 24.5 29.7 22.8 90 1.1 CALM 0 0 0 0 1009.9 1009.7 0.0
20/06:00am 22.6 26.9 21.2 92 0.9 CALM 0 0 0 0 1009.5 1009.3 0.0
20/05:30am 21.8 25.7 20.4 92 0.9 CALM 0 0 0 0 1009.1 1008.9 0.0
20/05:00am 22.3 25.4 21.1 93 0.8 SSW 6 7 3 4 1008.7 1008.5 0.0
20/04:30am 22.7 27.1 21.3 92 0.9 CALM 0 0 0 0 1008.5 1008.3 0.0
20/04:00am 22.7 27.0 21.2 91 1.0 CALM 0 0 0 0 1008.3 1008.1 0.0
20/03:30am 23.0 27.5 21.6 92 0.9 CALM 0 0 0 0 1008.4 1008.2 0.0
20/03:00am 23.2 27.8 21.8 92 0.9 CALM 0 0 0 0 1008.5 1008.3 0.0
20/02:30am 23.4 28.0 21.8 91 1.1 CALM 0 0 0 0 1008.8 1008.6 0.0
20/02:00am 23.7 28.5 22.1 91 1.1 CALM 0 0 0 0 1008.8 1008.6 0.0
20/01:30am 23.8 28.6 22.2 91 1.1 CALM 0 0 0 0 1009.0 1008.8 0.0
20/01:00am 24.0 28.9 22.4 91 1.1 CALM 0 0 0 0 1009.1 1008.9 0.0
20/12:30am 24.1 29.1 22.5 91 1.1 CALM 0 0 0 0 1009.3 1009.1 0.0
20/12:00am 24.1 29.1 22.5 91 1.1 CALM 0 0 0 0 1009.2 1009.0 0.0
 
Date/Time
EST
Temp
°C
App
Temp
°C
Dew
Point
°C
Rel
Hum
%
Delta-T
°C
Wind Press
QNH
hPa
Press
MSL
hPa
Rain since
9am
mm
Dir  Spd
km/h
Gust
km/h
Spd
kts
Gust
kts
19/11:30pm 24.0 28.9 22.4 91 1.1 CALM 0 0 0 0 1009.1 1008.9 0.0
19/11:00pm 23.9 28.6 22.0 89 1.3 CALM 0 0 0 0 1009.1 1008.9 0.0
19/10:30pm 24.2 28.7 22.3 89 1.3 NE 2 6 1 3 1009.1 1008.9 0.0
19/10:00pm 24.5 28.0 22.2 87 1.5 NNE 7 9 4 5 1008.9 1008.7 0.0
19/09:30pm 25.0 28.4 22.7 87 1.6 NE 9 11 5 6 1008.9 1008.7 0.0
19/09:00pm 24.6 29.5 22.3 87 1.5 CALM 0 7 0 4 1008.6 1008.4 0.0
19/08:30pm 25.1 28.9 22.4 85 1.8 NNE 6 7 3 4 1008.4 1008.2 0.0
19/08:00pm 25.9 29.7 22.4 81 2.4 NNE 6 7 3 4 1008.3 1008.1 0.0
19/07:30pm 26.3 29.8 22.2 78 2.8 N 7 9 4 5 1007.9 1007.7 0.0
19/07:00pm 27.1 30.2 22.1 74 3.4 NE 9 15 5 8 1007.5 1007.3 0.0
19/06:30pm 28.0 30.7 22.2 70 3.9 NNE 11 19 6 10 1007.1 1006.9 0.0
19/06:00pm 29.3 31.1 22.5 67 4.6 NE 17 28 9 15 1006.7 1006.5 0.0
19/05:30pm 30.4 32.6 21.8 60 5.8 NNE 13 20 7 11 1006.4 1006.2 0.0
19/05:00pm 31.2 32.5 21.7 57 6.4 NE 17 22 9 12 1006.1 1005.9 0.0
19/04:30pm 32.5 34.7 22.6 56 6.8 NE 15 24 8 13 1006.2 1006.0 0.0
19/04:00pm 33.3 35.7 23.0 54 7.1 NNE 15 20 8 11 1006.2 1006.0 0.0

Other Formats:

Comma delimited format used in spreadsheet applications
http://www.bom.gov.au/fwo/IDQ60801/IDQ60801.94370.axf

JavaScript Object Notation format (JSON) in row-major order
http://www.bom.gov.au/fwo/IDQ60801/IDQ60801.94370.json